Rossford, Ohio
Current Conditions -  °F | °C
As of 4:53 PM on Saturday 25 Oct 2014 (Local Time) from KTDZ Reporting Station
Clear Clear  
Wind Chill: 69°   Ceiling: Unl
Heat Index: 69°   Visibility: 10mi
Dew Point: 43°   Wind: 17mph
Humidity: 39%   Direction: 270°W
Pressure: 29.79"   Gusts: 30mph
Location:  41.61°N, 83.56°W
Report Text: KTDZ 252053Z AUTO 27015G26KT 10SM CLR 21/06 A2979 RMK AO2 PK WND 27027/2040 SLP086 T02060061 55014 TSNO
Loading
Personal Weather Stations






























Interactive Weather Map New forecast layout! Learn more

10-Day Weather Forecast

Advertisements
Track Severe Weather on mobile